Time;durP1;ratioP1;P1;durP2;ratioP2;P2;SDS_P1;SDS_P2;PMS_P1;PMS_P2;Temp;Humidity;BMP_temperature;BMP_pressure;BME280_temperature;BME280_humidity;BME280_pressure;Samples;Min_cycle;Max_cycle;Signal;HPM_P1;HPM_P2
2023/04/10 00:02:16;;;;;;;;;;;;;;;;;;5095860;28;19961;-60
2023/04/10 00:04:42;;;;;;;;;;;;;;;;;;5079511;28;20389;-60
2023/04/10 00:07:08;;;;;;;;;;;;;;;;;;5094574;28;19995;-60
2023/04/10 00:09:34;;;;;;;;;;;;;;;;;;5095361;28;19931;-60
2023/04/10 00:12:00;;;;;;;;;;;;;;;;;;5095498;28;19978;-60
2023/04/10 00:14:26;;;;;;;;;;;;;;;;;;5095337;28;19912;-60
2023/04/10 00:16:52;;;;;;;;;;;;;;;;;;5095586;28;19916;-60
2023/04/10 00:19:18;;;;;;;;;;;;;;;;;;5093963;28;20339;-60
2023/04/10 00:21:44;;;;;;;;;;;;;;;;;;5090726;28;20453;-60
2023/04/10 00:24:10;;;;;;;;;;;;;;;;;;5079088;28;20012;-60
2023/04/10 00:26:36;;;;;;;;;;;;;;;;;;5075530;28;19963;-60
2023/04/10 00:29:02;;;;;;;;;;;;;;;;;;5094531;28;20467;-60
2023/04/10 00:31:28;;;;;;;;;;;;;;;;;;5093498;28;19967;-60
2023/04/10 00:33:53;;;;;;;;;;;;;;;;;;5092882;28;20014;-61
2023/04/10 00:36:19;;;;;;;;;;;;;;;;;;5094796;28;19916;-60
2023/04/10 00:38:46;;;;;;;;;;;;;;;;;;5088061;28;20014;-60
2023/04/10 00:41:12;;;;;;;;;;;;;;;;;;5094158;28;19916;-60
2023/04/10 00:43:38;;;;;;;;;;;;;;;;;;5086951;28;20331;-61
2023/04/10 00:46:04;;;;;;;;;;;;;;;;;;5089849;28;20350;-60
2023/04/10 00:48:30;;;;;;;;;;;;;;;;;;5092894;28;19981;-60
2023/04/10 00:50:56;;;;;;;;;;;;;;;;;;5092270;28;19948;-60
2023/04/10 00:53:22;;;;;;;;;;;;;;;;;;5090376;28;20021;-60
2023/04/10 00:55:48;;;;;;;;;;;;;;;;;;5091322;28;20406;-60
2023/04/10 00:58:14;;;;;;;;;;;;;;;;;;5093692;28;19915;-60
2023/04/10 01:00:40;;;;;;;;;;;;;;;;;;5092713;28;19920;-59
2023/04/10 01:03:06;;;;;;;;;;;;;;;;;;5091315;28;19923;-60
2023/04/10 01:05:32;;;;;;;;;;;;;;;;;;5094158;28;19935;-60
2023/04/10 01:07:58;;;;;;;;;;;;;;;;;;5093859;28;19953;-60
2023/04/10 01:10:24;;;;;;;;;;;;;;;;;;5092301;28;20002;-60
2023/04/10 01:12:50;;;;;;;;;;;;;;;;;;5091682;28;19926;-59
2023/04/10 01:15:16;;;;;;;;;;;;;;;;;;5093525;28;19908;-60
2023/04/10 01:17:41;;;;;;;;;;;;;;;;;;5081061;28;19916;-60
2023/04/10 01:20:07;;;;;;;;;;;;;;;;;;5089577;28;19908;-60
2023/04/10 01:22:34;;;;;;;;;;;;;;;;;;5092360;28;20040;-60
2023/04/10 01:25:00;;;;;;;;;;;;;;;;;;5094425;28;19908;-59
2023/04/10 01:27:26;;;;;;;;;;;;;;;;;;5089965;28;19955;-60
2023/04/10 01:29:52;;;;;;;;;;;;;;;;;;5080999;28;19912;-60
2023/04/10 01:32:18;;;;;;;;;;;;;;;;;;5089527;28;19959;-60
2023/04/10 01:34:44;;;;;;;;;;;;;;;;;;5090152;28;19962;-60
2023/04/10 01:37:10;;;;;;;;;;;;;;;;;;5091173;28;19955;-60
2023/04/10 01:39:36;;;;;;;;;;;;;;;;;;5090303;28;19959;-60
2023/04/10 01:42:02;;;;;;;;;;;;;;;;;;5093213;28;19912;-60
2023/04/10 01:44:27;;;;;;;;;;;;;;;;;;5078193;28;19917;-60
2023/04/10 01:46:53;;;;;;;;;;;;;;;;;;5086768;28;19916;-60
2023/04/10 01:49:19;;;;;;;;;;;;;;;;;;5090750;28;20488;-59
2023/04/10 01:51:46;;;;;;;;;;;;;;;;;;5088867;28;20354;-60
2023/04/10 01:54:12;;;;;;;;;;;;;;;;;;5084737;28;19916;-60
2023/04/10 01:56:38;;;;;;;;;;;;;;;;;;5090095;28;20371;-60
2023/04/10 01:59:04;;;;;;;;;;;;;;;;;;5084193;28;20295;-60
2023/04/10 02:01:30;;;;;;;;;;;;;;;;;;5071416;28;20296;-60
2023/04/10 02:03:56;;;;;;;;;;;;;;;;;;5087193;28;19969;-60
2023/04/10 02:06:22;;;;;;;;;;;;;;;;;;5085391;28;19999;-60
2023/04/10 02:08:48;;;;;;;;;;;;;;;;;;5073015;28;20377;-60
2023/04/10 02:11:14;;;;;;;;;;;;;;;;;;5081148;28;19959;-60
2023/04/10 02:13:40;;;;;;;;;;;;;;;;;;5093281;28;19947;-60
2023/04/10 02:16:06;;;;;;;;;;;;;;;;;;5087541;28;19917;-60
2023/04/10 02:18:32;;;;;;;;;;;;;;;;;;5091763;28;20363;-60
2023/04/10 02:20:57;;;;;;;;;;;;;;;;;;5091050;28;20003;-60
2023/04/10 02:23:23;;;;;;;;;;;;;;;;;;5088630;28;20317;-60
2023/04/10 02:25:49;;;;;;;;;;;;;;;;;;5089458;28;20057;-60
2023/04/10 02:28:15;;;;;;;;;;;;;;;;;;5075372;28;20033;-60
2023/04/10 02:30:41;;;;;;;;;;;;;;;;;;5089828;28;19954;-59
2023/04/10 02:33:07;;;;;;;;;;;;;;;;;;5090531;28;19937;-60
2023/04/10 02:35:33;;;;;;;;;;;;;;;;;;5090088;28;20018;-59
2023/04/10 02:37:59;;;;;;;;;;;;;;;;;;5081355;28;19999;-60
2023/04/10 02:40:25;;;;;;;;;;;;;;;;;;5090895;28;19916;-60
2023/04/10 02:42:51;;;;;;;;;;;;;;;;;;5076608;28;19978;-60
2023/04/10 02:45:17;;;;;;;;;;;;;;;;;;5082919;28;19912;-59
2023/04/10 02:47:43;;;;;;;;;;;;;;;;;;5084316;28;19982;-60
2023/04/10 02:50:09;;;;;;;;;;;;;;;;;;5090759;28;20367;-60
2023/04/10 02:52:35;;;;;;;;;;;;;;;;;;5088753;28;19963;-59
2023/04/10 02:55:01;;;;;;;;;;;;;;;;;;5091123;28;19948;-60
2023/04/10 02:57:27;;;;;;;;;;;;;;;;;;5090318;28;19955;-60
2023/04/10 02:59:53;;;;;;;;;;;;;;;;;;5090270;28;19916;-60
2023/04/10 03:02:20;;;;;;;;;;;;;;;;;;5085499;28;20000;-60
2023/04/10 03:04:46;;;;;;;;;;;;;;;;;;5089690;28;19915;-60
2023/04/10 03:07:12;;;;;;;;;;;;;;;;;;5089957;28;19916;-59
2023/04/10 03:09:38;;;;;;;;;;;;;;;;;;5076728;28;20623;-60
2023/04/10 03:12:04;;;;;;;;;;;;;;;;;;5088904;28;19916;-59
2023/04/10 03:14:30;;;;;;;;;;;;;;;;;;5091827;28;19916;-60
2023/04/10 03:16:56;;;;;;;;;;;;;;;;;;5087440;28;19912;-60
2023/04/10 03:19:22;;;;;;;;;;;;;;;;;;5091668;28;20012;-59
2023/04/10 03:21:48;;;;;;;;;;;;;;;;;;5096185;28;19969;-60
2023/04/10 03:24:14;;;;;;;;;;;;;;;;;;5087437;28;19978;-59
2023/04/10 03:26:40;;;;;;;;;;;;;;;;;;5080711;28;20591;-59
2023/04/10 03:29:06;;;;;;;;;;;;;;;;;;5079735;28;19917;-60
2023/04/10 03:31:32;;;;;;;;;;;;;;;;;;5092437;28;19913;-60
2023/04/10 03:33:58;;;;;;;;;;;;;;;;;;5095869;28;20326;-60
2023/04/10 03:36:24;;;;;;;;;;;;;;;;;;5095058;28;19919;-60
2023/04/10 03:38:51;;;;;;;;;;;;;;;;;;5095710;28;19912;-60
2023/04/10 03:41:17;;;;;;;;;;;;;;;;;;5093926;28;19939;-60
2023/04/10 03:43:43;;;;;;;;;;;;;;;;;;5090879;28;19955;-59
2023/04/10 03:46:09;;;;;;;;;;;;;;;;;;5094355;28;19919;-60
2023/04/10 03:48:35;;;;;;;;;;;;;;;;;;5093230;28;19916;-60
2023/04/10 03:51:01;;;;;;;;;;;;;;;;;;5093666;28;19908;-59
2023/04/10 03:53:27;;;;;;;;;;;;;;;;;;5095190;28;20560;-60
2023/04/10 03:55:53;;;;;;;;;;;;;;;;;;5075478;28;19922;-60
2023/04/10 03:58:19;;;;;;;;;;;;;;;;;;5075329;28;20010;-60
2023/04/10 04:00:45;;;;;;;;;;;;;;;;;;5092868;28;19920;-60
2023/04/10 04:03:11;;;;;;;;;;;;;;;;;;5082808;28;19993;-60
2023/04/10 04:05:36;;;;;;;;;;;;;;;;;;5081546;28;19948;-59
2023/04/10 04:08:05;;;;;;;;;;;;;;;;;;5081211;28;19971;-60
2023/04/10 04:10:31;;;;;;;;;;;;;;;;;;5082920;28;20003;-60
2023/04/10 04:12:57;;;;;;;;;;;;;;;;;;5094215;28;20526;-60
2023/04/10 04:15:23;;;;;;;;;;;;;;;;;;5080297;28;19978;-59
2023/04/10 04:17:49;;;;;;;;;;;;;;;;;;5081322;28;20376;-59
2023/04/10 04:20:15;;;;;;;;;;;;;;;;;;5084918;28;19942;-59
2023/04/10 04:22:41;;;;;;;;;;;;;;;;;;5088461;28;19920;-60
2023/04/10 04:25:09;;;;;;;;;;;;;;;;;;5075549;28;20003;-59
2023/04/10 04:27:35;;;;;;;;;;;;;;;;;;5089371;28;20341;-60
2023/04/10 04:30:01;;;;;;;;;;;;;;;;;;5091859;28;19912;-60
2023/04/10 04:32:27;;;;;;;;;;;;;;;;;;5088874;28;19955;-60
2023/04/10 04:34:53;;;;;;;;;;;;;;;;;;5093221;28;20054;-60
2023/04/10 04:37:19;;;;;;;;;;;;;;;;;;5081089;28;20339;-60
2023/04/10 04:39:44;;;;;;;;;;;;;;;;;;5085918;28;19954;-60
2023/04/10 04:42:10;;;;;;;;;;;;;;;;;;5086614;28;19947;-60
2023/04/10 04:44:36;;;;;;;;;;;;;;;;;;5093552;28;20572;-59
2023/04/10 04:47:02;;;;;;;;;;;;;;;;;;5091128;28;19912;-60
2023/04/10 04:49:28;;;;;;;;;;;;;;;;;;5088321;28;19947;-59
2023/04/10 04:51:54;;;;;;;;;;;;;;;;;;5085317;28;19951;-60
2023/04/10 04:54:20;;;;;;;;;;;;;;;;;;5080108;28;20054;-60
2023/04/10 04:56:46;;;;;;;;;;;;;;;;;;5093944;28;20417;-60
2023/04/10 04:59:12;;;;;;;;;;;;;;;;;;5089201;28;19962;-59
2023/04/10 05:01:37;;;;;;;;;;;;;;;;;;5092545;28;20342;-60
2023/04/10 05:04:03;;;;;;;;;;;;;;;;;;5081450;28;19917;-59
2023/04/10 05:06:30;;;;;;;;;;;;;;;;;;5078551;28;19952;-60
2023/04/10 05:08:56;;;;;;;;;;;;;;;;;;5086009;28;19919;-59
2023/04/10 05:11:22;;;;;;;;;;;;;;;;;;5088142;28;19920;-60
2023/04/10 05:13:48;;;;;;;;;;;;;;;;;;5088342;28;19996;-60
2023/04/10 05:16:14;;;;;;;;;;;;;;;;;;5075994;28;19916;-60
2023/04/10 05:18:40;;;;;;;;;;;;;;;;;;5083258;28;19938;-60
2023/04/10 05:21:06;;;;;;;;;;;;;;;;;;5084042;28;19912;-60
2023/04/10 05:23:32;;;;;;;;;;;;;;;;;;5089228;28;20011;-60
2023/04/10 05:25:58;;;;;;;;;;;;;;;;;;5091643;28;20042;-60
2023/04/10 05:28:24;;;;;;;;;;;;;;;;;;5091192;28;19950;-60
2023/04/10 05:30:49;;;;;;;;;;;;;;;;;;5082630;28;19912;-60
2023/04/10 05:33:15;;;;;;;;;;;;;;;;;;5080689;28;19995;-59
2023/04/10 05:35:41;;;;;;;;;;;;;;;;;;5075867;28;19931;-60
2023/04/10 05:38:07;;;;;;;;;;;;;;;;;;5087728;28;19927;-60
2023/04/10 05:40:33;;;;;;;;;;;;;;;;;;5083323;28;19944;-59
2023/04/10 05:42:59;;;;;;;;;;;;;;;;;;5090927;28;20003;-59
2023/04/10 05:45:27;;;;;;;;;;;;;;;;;;5090856;28;20303;-59
2023/04/10 05:47:53;;;;;;;;;;;;;;;;;;5076983;28;19943;-59
2023/04/10 05:50:19;;;;;;;;;;;;;;;;;;5078949;28;19993;-59
2023/04/10 05:52:45;;;;;;;;;;;;;;;;;;5079202;28;20302;-59
2023/04/10 05:55:11;;;;;;;;;;;;;;;;;;5072747;28;19908;-59
2023/04/10 05:57:37;;;;;;;;;;;;;;;;;;5071306;28;20360;-59
2023/04/10 06:00:03;;;;;;;;;;;;;;;;;;5072410;28;20066;-59
2023/04/10 06:02:29;;;;;;;;;;;;;;;;;;5089312;28;19981;-59
2023/04/10 06:04:55;;;;;;;;;;;;;;;;;;5084111;28;19969;-59
2023/04/10 06:07:20;;;;;;;;;;;;;;;;;;5074026;28;19924;-59
2023/04/10 06:09:46;;;;;;;;;;;;;;;;;;5076848;28;20414;-59
2023/04/10 06:12:12;;;;;;;;;;;;;;;;;;5088678;28;19920;-59
2023/04/10 06:14:38;;;;;;;;;;;;;;;;;;5089352;28;20614;-59
2023/04/10 06:17:04;;;;;;;;;;;;;;;;;;5080210;28;19989;-59
2023/04/10 06:19:30;;;;;;;;;;;;;;;;;;5087599;28;20331;-59
2023/04/10 06:21:56;;;;;;;;;;;;;;;;;;5091652;28;19971;-59
2023/04/10 06:24:22;;;;;;;;;;;;;;;;;;5092167;28;20366;-59
2023/04/10 06:26:48;;;;;;;;;;;;;;;;;;5082353;28;19955;-59
2023/04/10 06:29:14;;;;;;;;;;;;;;;;;;5092240;28;19997;-59
2023/04/10 06:31:40;;;;;;;;;;;;;;;;;;5082828;28;19916;-59
2023/04/10 06:34:06;;;;;;;;;;;;;;;;;;5080881;28;20380;-59
2023/04/10 06:36:32;;;;;;;;;;;;;;;;;;5091992;28;19913;-59
2023/04/10 06:38:58;;;;;;;;;;;;;;;;;;5092216;28;20706;-59
2023/04/10 06:41:24;;;;;;;;;;;;;;;;;;5082380;28;19912;-59
2023/04/10 06:43:50;;;;;;;;;;;;;;;;;;5084956;28;19916;-59
2023/04/10 06:46:16;;;;;;;;;;;;;;;;;;5090829;28;20012;-59
2023/04/10 06:48:42;;;;;;;;;;;;;;;;;;5078878;28;19919;-59
2023/04/10 06:51:08;;;;;;;;;;;;;;;;;;5071483;28;20422;-59
2023/04/10 06:53:34;;;;;;;;;;;;;;;;;;5092011;28;19908;-59
2023/04/10 06:56:00;;;;;;;;;;;;;;;;;;5091920;28;19912;-59
2023/04/10 06:58:26;;;;;;;;;;;;;;;;;;5072974;28;19963;-59
2023/04/10 07:00:53;;;;;;;;;;;;;;;;;;5071777;28;19960;-59
2023/04/10 07:03:19;;;;;;;;;;;;;;;;;;5075080;28;19927;-59
2023/04/10 07:05:45;;;;;;;;;;;;;;;;;;5082882;28;19959;-59
2023/04/10 07:08:11;;;;;;;;;;;;;;;;;;5083504;28;20306;-59
2023/04/10 07:10:37;;;;;;;;;;;;;;;;;;5088962;28;19920;-59
2023/04/10 07:13:05;;;;;;;;;;;;;;;;;;5082030;28;21562;-59
2023/04/10 07:15:30;;;;;;;;;;;;;;;;;;5089965;28;20007;-59
2023/04/10 07:17:56;;;;;;;;;;;;;;;;;;5089395;28;19994;-59
2023/04/10 07:20:22;;;;;;;;;;;;;;;;;;5074567;28;20371;-59
2023/04/10 07:22:48;;;;;;;;;;;;;;;;;;5080600;28;19970;-59
2023/04/10 07:25:14;;;;;;;;;;;;;;;;;;5083020;28;20011;-59
2023/04/10 07:27:40;;;;;;;;;;;;;;;;;;5088843;28;20444;-60
2023/04/10 07:30:06;;;;;;;;;;;;;;;;;;5085492;28;19922;-59
2023/04/10 07:32:33;;;;;;;;;;;;;;;;;;5078672;28;20396;-60
2023/04/10 07:34:59;;;;;;;;;;;;;;;;;;5087068;28;19951;-59
2023/04/10 07:37:25;;;;;;;;;;;;;;;;;;5086290;28;19952;-59
2023/04/10 07:39:51;;;;;;;;;;;;;;;;;;5084618;28;19920;-59
2023/04/10 07:42:17;;;;;;;;;;;;;;;;;;5079167;28;20371;-59
2023/04/10 07:44:43;;;;;;;;;;;;;;;;;;5082562;28;19926;-60
2023/04/10 07:47:09;;;;;;;;;;;;;;;;;;5073552;28;20316;-59
2023/04/10 07:49:34;;;;;;;;;;;;;;;;;;5087143;28;19912;-59
2023/04/10 07:52:00;;;;;;;;;;;;;;;;;;5081218;28;19996;-59
2023/04/10 07:54:26;;;;;;;;;;;;;;;;;;5087905;28;20388;-59
2023/04/10 07:56:52;;;;;;;;;;;;;;;;;;5081739;28;20362;-60
2023/04/10 07:59:18;;;;;;;;;;;;;;;;;;5081482;28;19920;-59
2023/04/10 08:01:44;;;;;;;;;;;;;;;;;;5085225;28;19946;-59
2023/04/10 08:04:10;;;;;;;;;;;;;;;;;;5082223;28;19916;-59
2023/04/10 08:06:36;;;;;;;;;;;;;;;;;;5090661;28;20360;-59
2023/04/10 08:09:02;;;;;;;;;;;;;;;;;;5086642;28;19926;-59
2023/04/10 08:11:28;;;;;;;;;;;;;;;;;;5084917;28;19927;-59
2023/04/10 08:13:54;;;;;;;;;;;;;;;;;;5082069;28;20350;-59
2023/04/10 08:16:20;;;;;;;;;;;;;;;;;;5086796;28;19912;-59
2023/04/10 08:18:46;;;;;;;;;;;;;;;;;;5080795;28;20436;-59
2023/04/10 08:21:12;;;;;;;;;;;;;;;;;;5085788;28;19973;-59
2023/04/10 08:23:38;;;;;;;;;;;;;;;;;;5089511;28;20031;-59
2023/04/10 08:26:04;;;;;;;;;;;;;;;;;;5079087;28;19947;-59
2023/04/10 08:28:31;;;;;;;;;;;;;;;;;;5080541;28;19913;-59
2023/04/10 08:30:57;;;;;;;;;;;;;;;;;;5088037;28;20362;-59
2023/04/10 08:33:23;;;;;;;;;;;;;;;;;;5088204;28;19991;-59
2023/04/10 08:35:49;;;;;;;;;;;;;;;;;;5081228;28;19912;-59
2023/04/10 08:38:14;;;;;;;;;;;;;;;;;;5081412;28;20367;-59
2023/04/10 08:40:40;;;;;;;;;;;;;;;;;;5083999;28;19908;-59
2023/04/10 08:43:06;;;;;;;;;;;;;;;;;;5079671;28;19923;-59
2023/04/10 08:45:32;;;;;;;;;;;;;;;;;;5083817;28;19952;-59
2023/04/10 08:47:58;;;;;;;;;;;;;;;;;;5079982;28;20435;-59
2023/04/10 08:50:24;;;;;;;;;;;;;;;;;;5079322;28;19912;-60
2023/04/10 08:52:51;;;;;;;;;;;;;;;;;;5076496;28;20299;-60
2023/04/10 08:55:17;;;;;;;;;;;;;;;;;;5085294;28;19921;-59
2023/04/10 08:57:43;;;;;;;;;;;;;;;;;;5080143;28;20249;-59
2023/04/10 09:00:09;;;;;;;;;;;;;;;;;;5092319;28;20410;-60
2023/04/10 09:02:35;;;;;;;;;;;;;;;;;;5093901;28;19924;-59
2023/04/10 09:05:00;;;;;;;;;;;;;;;;;;5091326;28;19959;-59
2023/04/10 09:07:26;;;;;;;;;;;;;;;;;;5087999;28;19966;-59
2023/04/10 09:09:52;;;;;;;;;;;;;;;;;;5081981;28;20372;-59
2023/04/10 09:12:18;;;;;;;;;;;;;;;;;;5091609;28;20004;-59
2023/04/10 09:14:44;;;;;;;;;;;;;;;;;;5080307;28;19913;-59
2023/04/10 09:17:10;;;;;;;;;;;;;;;;;;5074456;28;19926;-59
2023/04/10 09:19:36;;;;;;;;;;;;;;;;;;5076844;28;19962;-59
2023/04/10 09:22:02;;;;;;;;;;;;;;;;;;5072752;28;19962;-59
2023/04/10 09:24:28;;;;;;;;;;;;;;;;;;5072693;28;19952;-59
2023/04/10 09:26:54;;;;;;;;;;;;;;;;;;5072085;28;20054;-58
2023/04/10 09:29:20;;;;;;;;;;;;;;;;;;5087920;28;19912;-59
2023/04/10 09:31:46;;;;;;;;;;;;;;;;;;5085779;28;19989;-59
2023/04/10 09:34:12;;;;;;;;;;;;;;;;;;5080309;28;20360;-59
2023/04/10 09:36:40;;;;;;;;;;;;;;;;;;5073100;28;19916;-59
2023/04/10 09:39:06;;;;;;;;;;;;;;;;;;5073056;28;19919;-59
2023/04/10 09:41:31;;;;;;;;;;;;;;;;;;5082597;28;19947;-59
2023/04/10 09:43:57;;;;;;;;;;;;;;;;;;5079965;28;19926;-59
2023/04/10 09:46:23;;;;;;;;;;;;;;;;;;5087374;28;19916;-58
2023/04/10 09:48:49;;;;;;;;;;;;;;;;;;5080909;28;20000;-59
2023/04/10 09:51:15;;;;;;;;;;;;;;;;;;5081869;28;19959;-59
2023/04/10 09:53:41;;;;;;;;;;;;;;;;;;5083248;28;19913;-59
2023/04/10 09:56:07;;;;;;;;;;;;;;;;;;5077356;28;19919;-59
2023/04/10 09:58:33;;;;;;;;;;;;;;;;;;5081956;28;20605;-59
2023/04/10 10:00:59;;;;;;;;;;;;;;;;;;5077096;28;20000;-59
2023/04/10 10:03:25;;;;;;;;;;;;;;;;;;5089333;28;20398;-59
2023/04/10 10:05:51;;;;;;;;;;;;;;;;;;5084796;28;20010;-59
2023/04/10 10:08:17;;;;;;;;;;;;;;;;;;5081140;28;19927;-59
2023/04/10 10:10:44;;;;;;;;;;;;;;;;;;5081808;28;19986;-58
2023/04/10 10:13:10;;;;;;;;;;;;;;;;;;5079643;28;20493;-57
2023/04/10 10:15:37;;;;;;;;;;;;;;;;;;5092633;28;19916;-57
2023/04/10 10:18:03;;;;;;;;;;;;;;;;;;5084274;28;19939;-57
2023/04/10 10:20:29;;;;;;;;;;;;;;;;;;5071724;28;20023;-57
2023/04/10 10:22:56;;;;;;;;;;;;;;;;;;5071938;28;19967;-58
2023/04/10 10:25:22;;;;;;;;;;;;;;;;;;5080253;28;19912;-58
2023/04/10 10:27:48;;;;;;;;;;;;;;;;;;5078133;28;19936;-57
2023/04/10 10:30:14;;;;;;;;;;;;;;;;;;5074553;28;20294;-57
2023/04/10 10:32:40;;;;;;;;;;;;;;;;;;5089523;28;19912;-57
2023/04/10 10:35:08;;;;;;;;;;;;;;;;;;5073333;28;19923;-55
2023/04/10 10:37:34;;;;;;;;;;;;;;;;;;5071955;28;19952;-57
2023/04/10 10:40:00;;;;;;;;;;;;;;;;;;5088135;28;19959;-58
2023/04/10 10:42:26;;;;;;;;;;;;;;;;;;5077233;28;19916;-55
2023/04/10 10:44:52;;;;;;;;;;;;;;;;;;5075772;28;20418;-56
2023/04/10 10:47:18;;;;;;;;;;;;;;;;;;5091930;28;20307;-56
2023/04/10 10:49:44;;;;;;;;;;;;;;;;;;5090692;28;20311;-55
2023/04/10 10:52:10;;;;;;;;;;;;;;;;;;5081379;28;20087;-55
2023/04/10 10:54:36;;;;;;;;;;;;;;;;;;5081537;28;19916;-55
2023/04/10 10:57:05;;;;;;;;;;;;;;;;;;5082463;28;19912;-55
2023/04/10 10:59:31;;;;;;;;;;;;;;;;;;5080853;28;19935;-56
2023/04/10 11:01:57;;;;;;;;;;;;;;;;;;5075841;28;20364;-55
2023/04/10 11:04:22;;;;;;;;;;;;;;;;;;5082503;28;19970;-58
2023/04/10 11:06:49;;;;;;;;;;;;;;;;;;5080121;28;20069;-58
2023/04/10 11:09:15;;;;;;;;;;;;;;;;;;5081285;28;20403;-58
2023/04/10 11:11:41;;;;;;;;;;;;;;;;;;5081820;28;20011;-56
2023/04/10 11:14:07;;;;;;;;;;;;;;;;;;5081574;28;20032;-56
2023/04/10 11:16:34;;;;;;;;;;;;;;;;;;5076749;28;20415;-55
2023/04/10 11:19:00;;;;;;;;;;;;;;;;;;5078838;28;19963;-56
2023/04/10 11:21:27;;;;;;;;;;;;;;;;;;5080734;28;20037;-55
2023/04/10 11:23:56;;;;;;;;;;;;;;;;;;5080783;28;20042;-56
2023/04/10 11:26:22;;;;;;;;;;;;;;;;;;5081704;28;20508;-56
2023/04/10 11:28:47;;;;;;;;;;;;;;;;;;5080741;28;19940;-57
2023/04/10 11:31:14;;;;;;;;;;;;;;;;;;5079092;28;19915;-58
2023/04/10 11:33:40;;;;;;;;;;;;;;;;;;5080124;28;19924;-56
2023/04/10 11:36:06;;;;;;;;;;;;;;;;;;5082014;28;19951;-56
2023/04/10 11:38:32;;;;;;;;;;;;;;;;;;5081991;28;20494;-56
2023/04/10 11:40:58;;;;;;;;;;;;;;;;;;5084274;28;19948;-57
2023/04/10 11:43:24;;;;;;;;;;;;;;;;;;5078144;28;19923;-56
2023/04/10 11:45:50;;;;;;;;;;;;;;;;;;5085158;28;19912;-56
2023/04/10 11:48:16;;;;;;;;;;;;;;;;;;5084770;28;19962;-56
2023/04/10 11:50:42;;;;;;;;;;;;;;;;;;5084905;28;19920;-56
2023/04/10 11:53:08;;;;;;;;;;;;;;;;;;5080559;28;19916;-57
2023/04/10 11:55:33;;;;;;;;;;;;;;;;;;5079603;28;19965;-58
2023/04/10 11:58:00;;;;;;;;;;;;;;;;;;5090340;28;19998;-57
2023/04/10 12:00:26;;;;;;;;;;;;;;;;;;5072031;28;19920;-57
2023/04/10 12:02:52;;;;;;;;;;;;;;;;;;5085612;28;19955;-57
2023/04/10 12:05:18;;;;;;;;;;;;;;;;;;5089856;28;19908;-57
2023/04/10 12:07:43;;;;;;;;;;;;;;;;;;5091867;28;20392;-57
2023/04/10 12:10:09;;;;;;;;;;;;;;;;;;5082631;28;20008;-57
2023/04/10 12:12:35;;;;;;;;;;;;;;;;;;5094388;28;20304;-57
2023/04/10 12:15:01;;;;;;;;;;;;;;;;;;5080214;28;19912;-61
2023/04/10 12:17:27;;;;;;;;;;;;;;;;;;5083168;28;19960;-57
2023/04/10 12:19:53;;;;;;;;;;;;;;;;;;5085645;28;19936;-57
2023/04/10 12:22:19;;;;;;;;;;;;;;;;;;5091348;28;19908;-57
2023/04/10 12:24:45;;;;;;;;;;;;;;;;;;5092904;28;19926;-56
2023/04/10 12:27:11;;;;;;;;;;;;;;;;;;5089978;28;19908;-57
2023/04/10 12:29:37;;;;;;;;;;;;;;;;;;5083838;28;19955;-57
2023/04/10 12:32:03;;;;;;;;;;;;;;;;;;5084591;28;19908;-57
2023/04/10 12:34:29;;;;;;;;;;;;;;;;;;5079959;28;19957;-56
2023/04/10 12:36:55;;;;;;;;;;;;;;;;;;5084610;28;20329;-56
2023/04/10 12:39:21;;;;;;;;;;;;;;;;;;5089777;28;20414;-57
2023/04/10 12:41:46;;;;;;;;;;;;;;;;;;5091455;28;19947;-57
2023/04/10 12:44:12;;;;;;;;;;;;;;;;;;5082916;28;19916;-57
2023/04/10 12:46:38;;;;;;;;;;;;;;;;;;5079899;28;19969;-57
2023/04/10 12:49:04;;;;;;;;;;;;;;;;;;5091811;28;19912;-57
2023/04/10 12:51:30;;;;;;;;;;;;;;;;;;5092957;28;19935;-56
2023/04/10 12:53:56;;;;;;;;;;;;;;;;;;5091307;28;19969;-56
2023/04/10 12:56:23;;;;;;;;;;;;;;;;;;5088192;28;20367;-56
2023/04/10 12:58:49;;;;;;;;;;;;;;;;;;5087277;28;19912;-57
2023/04/10 13:01:15;;;;;;;;;;;;;;;;;;5076858;28;19948;-57
2023/04/10 13:03:41;;;;;;;;;;;;;;;;;;5078399;28;20043;-57
2023/04/10 13:06:07;;;;;;;;;;;;;;;;;;5083315;28;19912;-57
2023/04/10 13:08:33;;;;;;;;;;;;;;;;;;5080250;28;19913;-57
2023/04/10 13:11:02;;;;;;;;;;;;;;;;;;5081462;28;19966;-57
2023/04/10 13:13:29;;;;;;;;;;;;;;;;;;5079199;28;19920;-57
2023/04/10 13:15:55;;;;;;;;;;;;;;;;;;5086954;28;19912;-57
2023/04/10 13:18:21;;;;;;;;;;;;;;;;;;5080441;28;20446;-56
2023/04/10 13:20:47;;;;;;;;;;;;;;;;;;5079697;28;20015;-57
2023/04/10 13:23:13;;;;;;;;;;;;;;;;;;5084687;28;19924;-57
2023/04/10 13:25:39;;;;;;;;;;;;;;;;;;5083954;28;20371;-57
2023/04/10 13:28:09;;;;;;;;;;;;;;;;;;5079985;28;20265;-57
2023/04/10 13:30:34;;;;;;;;;;;;;;;;;;5083466;28;20058;-56
2023/04/10 13:33:00;;;;;;;;;;;;;;;;;;5080878;28;20380;-56
2023/04/10 13:35:26;;;;;;;;;;;;;;;;;;5078027;28;19917;-57
2023/04/10 13:37:53;;;;;;;;;;;;;;;;;;5086658;28;20065;-56
2023/04/10 13:40:19;;;;;;;;;;;;;;;;;;5084123;28;20382;-56
2023/04/10 13:42:45;;;;;;;;;;;;;;;;;;5076877;28;19989;-56
2023/04/10 13:45:10;;;;;;;;;;;;;;;;;;5086694;28;20359;-57
2023/04/10 13:47:36;;;;;;;;;;;;;;;;;;5082949;28;19979;-57
2023/04/10 13:50:02;;;;;;;;;;;;;;;;;;5081128;28;20007;-57
2023/04/10 13:52:28;;;;;;;;;;;;;;;;;;5079651;28;19912;-57
2023/04/10 13:54:54;;;;;;;;;;;;;;;;;;5086435;28;21859;-57
2023/04/10 13:57:20;;;;;;;;;;;;;;;;;;5083605;28;19959;-58
2023/04/10 13:59:46;;;;;;;;;;;;;;;;;;5078152;28;20388;-56
2023/04/10 14:02:12;;;;;;;;;;;;;;;;;;5091189;28;20466;-58
2023/04/10 14:04:38;;;;;;;;;;;;;;;;;;5093254;28;20055;-58
2023/04/10 14:07:04;;;;;;;;;;;;;;;;;;5090343;28;20383;-56
2023/04/10 14:09:30;;;;;;;;;;;;;;;;;;5086382;28;19959;-58
2023/04/10 14:11:56;;;;;;;;;;;;;;;;;;5078502;28;19943;-56
2023/04/10 14:14:23;;;;;;;;;;;;;;;;;;5084696;28;19912;-58
2023/04/10 14:16:49;;;;;;;;;;;;;;;;;;5091389;28;19935;-56
2023/04/10 14:19:15;;;;;;;;;;;;;;;;;;5083760;28;19919;-56
2023/04/10 14:21:43;;;;;;;;;;;;;;;;;;5074038;28;20549;-56
2023/04/10 14:24:09;;;;;;;;;;;;;;;;;;5082859;28;19916;-57
2023/04/10 14:26:35;;;;;;;;;;;;;;;;;;5083823;28;20003;-56
2023/04/10 14:29:00;;;;;;;;;;;;;;;;;;5082294;28;19920;-57
2023/04/10 14:31:26;;;;;;;;;;;;;;;;;;5081105;28;20377;-56
2023/04/10 14:33:52;;;;;;;;;;;;;;;;;;5084755;28;20375;-56
2023/04/10 14:36:18;;;;;;;;;;;;;;;;;;5077978;28;19994;-59
2023/04/10 14:38:44;;;;;;;;;;;;;;;;;;5081677;28;19916;-56
2023/04/10 14:41:10;;;;;;;;;;;;;;;;;;5084562;28;19982;-58
2023/04/10 14:43:36;;;;;;;;;;;;;;;;;;5080722;28;19930;-58
2023/04/10 14:46:02;;;;;;;;;;;;;;;;;;5090072;28;19912;-58
2023/04/10 14:48:28;;;;;;;;;;;;;;;;;;5077002;28;20276;-55
2023/04/10 14:50:55;;;;;;;;;;;;;;;;;;5086479;28;19912;-58
2023/04/10 14:53:21;;;;;;;;;;;;;;;;;;5083428;28;20360;-58
2023/04/10 14:55:48;;;;;;;;;;;;;;;;;;5084597;28;19999;-58
2023/04/10 14:58:13;;;;;;;;;;;;;;;;;;5080047;28;19916;-58
2023/04/10 15:00:39;;;;;;;;;;;;;;;;;;5089733;28;19956;-58
2023/04/10 15:03:07;;;;;;;;;;;;;;;;;;5080463;28;19943;-58
2023/04/10 15:05:33;;;;;;;;;;;;;;;;;;5081504;28;19912;-59
2023/04/10 15:07:59;;;;;;;;;;;;;;;;;;5083666;28;20402;-59
2023/04/10 15:10:25;;;;;;;;;;;;;;;;;;5086556;28;19974;-59
2023/04/10 15:12:50;;;;;;;;;;;;;;;;;;5080024;28;20353;-58
2023/04/10 15:15:17;;;;;;;;;;;;;;;;;;5079928;28;19919;-62
2023/04/10 15:17:43;;;;;;;;;;;;;;;;;;5086265;28;19953;-61
2023/04/10 15:20:08;;;;;;;;;;;;;;;;;;5076806;28;20658;-61
2023/04/10 15:22:34;;;;;;;;;;;;;;;;;;5079816;28;19927;-61
2023/04/10 15:25:00;;;;;;;;;;;;;;;;;;5084194;28;19916;-61
2023/04/10 15:27:26;;;;;;;;;;;;;;;;;;5074441;28;19978;-61
2023/04/10 15:29:52;;;;;;;;;;;;;;;;;;5085557;28;19990;-61
2023/04/10 15:32:18;;;;;;;;;;;;;;;;;;5086762;28;20046;-61
2023/04/10 15:34:44;;;;;;;;;;;;;;;;;;5081053;28;19973;-61
2023/04/10 15:37:10;;;;;;;;;;;;;;;;;;5078903;28;19955;-59
2023/04/10 15:39:36;;;;;;;;;;;;;;;;;;5081537;28;20000;-61
2023/04/10 15:42:04;;;;;;;;;;;;;;;;;;5076562;28;19912;-61
2023/04/10 15:44:29;;;;;;;;;;;;;;;;;;5077349;28;19927;-61
2023/04/10 15:46:55;;;;;;;;;;;;;;;;;;5078673;28;19998;-61
2023/04/10 15:49:21;;;;;;;;;;;;;;;;;;5081575;28;20414;-61
2023/04/10 15:51:47;;;;;;;;;;;;;;;;;;5081101;28;19955;-61
2023/04/10 15:54:13;;;;;;;;;;;;;;;;;;5080278;28;20286;-60
2023/04/10 15:56:39;;;;;;;;;;;;;;;;;;5076507;28;20423;-61
2023/04/10 15:59:05;;;;;;;;;;;;;;;;;;5079249;28;20272;-61
2023/04/10 16:01:31;;;;;;;;;;;;;;;;;;5082616;28;19956;-61
2023/04/10 16:03:57;;;;;;;;;;;;;;;;;;5075566;28;19927;-61
2023/04/10 16:06:24;;;;;;;;;;;;;;;;;;5081987;28;19912;-60
2023/04/10 16:08:50;;;;;;;;;;;;;;;;;;5080091;28;19919;-61
2023/04/10 16:11:16;;;;;;;;;;;;;;;;;;5076769;28;20011;-61
2023/04/10 16:13:42;;;;;;;;;;;;;;;;;;5084657;28;19961;-61
2023/04/10 16:16:08;;;;;;;;;;;;;;;;;;5082323;28;19920;-61
2023/04/10 16:18:34;;;;;;;;;;;;;;;;;;5087540;28;19912;-61
2023/04/10 16:21:00;;;;;;;;;;;;;;;;;;5072914;28;20351;-61
2023/04/10 16:23:26;;;;;;;;;;;;;;;;;;5084678;28;19966;-61
2023/04/10 16:25:52;;;;;;;;;;;;;;;;;;5084391;28;20385;-61
2023/04/10 16:28:18;;;;;;;;;;;;;;;;;;5085887;28;19995;-60
2023/04/10 16:30:43;;;;;;;;;;;;;;;;;;5088188;28;19961;-61
2023/04/10 16:33:09;;;;;;;;;;;;;;;;;;5087951;28;20231;-61
2023/04/10 16:35:35;;;;;;;;;;;;;;;;;;5086987;28;20011;-61
2023/04/10 16:38:01;;;;;;;;;;;;;;;;;;5075949;28;19944;-60